createdAt,value
2022-10-30T00:01:20.263Z,15.09
2022-10-30T00:03:47.743Z,15.25
2022-10-30T00:06:15.160Z,15.31
2022-10-30T00:08:42.563Z,14.65
2022-10-30T00:11:13.078Z,14.80
2022-10-30T00:13:40.630Z,15.15
2022-10-30T00:16:09.571Z,15.29
2022-10-30T00:18:37.579Z,15.35
2022-10-30T00:21:09.144Z,15.33
2022-10-30T00:23:36.751Z,15.73
2022-10-30T00:26:05.456Z,15.84
2022-10-30T00:28:34.659Z,16.09
2022-10-30T00:31:02.754Z,16.09
2022-10-30T00:33:30.675Z,16.23
2022-10-30T00:35:59.006Z,16.15
2022-10-30T00:38:26.417Z,15.99
2022-10-30T00:40:54.086Z,16.23
2022-10-30T00:43:37.710Z,16.42
2022-10-30T00:46:11.729Z,16.69
2022-10-30T00:48:39.127Z,16.74
2022-10-30T00:51:08.625Z,16.73
2022-10-30T00:53:36.146Z,16.61
2022-10-30T00:56:07.444Z,16.98
2022-10-30T00:58:39.118Z,17.18
2022-10-30T01:01:09.057Z,17.23
2022-10-30T01:03:37.125Z,17.17
2022-10-30T01:06:07.736Z,17.34
2022-10-30T01:08:35.517Z,17.32
2022-10-30T01:11:03.743Z,17.41
2022-10-30T01:13:31.900Z,17.44
2022-10-30T01:16:14.632Z,17.22
2022-10-30T01:18:47.492Z,17.17
2022-10-30T01:21:30.890Z,17.08
2022-10-30T01:24:14.283Z,17.22
2022-10-30T01:26:47.384Z,17.31
2022-10-30T01:29:27.918Z,17.51
2022-10-30T01:32:13.004Z,17.52
2022-10-30T01:34:48.623Z,17.49
2022-10-30T01:37:21.216Z,17.19
2022-10-30T01:39:48.687Z,17.32
2022-10-30T01:42:43.308Z,17.49
2022-10-30T01:45:12.876Z,17.34
2022-10-30T01:47:51.541Z,17.26
2022-10-30T01:50:26.239Z,17.33
2022-10-30T01:52:58.941Z,17.35
2022-10-30T01:55:34.274Z,17.43
2022-10-30T01:58:08.267Z,17.36
2022-10-30T02:00:38.569Z,17.49
2022-10-30T02:03:07.699Z,17.15
2022-10-30T02:05:39.608Z,17.35
2022-10-30T02:08:07.298Z,17.36
2022-10-30T02:10:38.964Z,17.45
2022-10-30T02:13:06.467Z,17.56
2022-10-30T02:15:34.993Z,17.22
2022-10-30T02:18:02.717Z,17.25
2022-10-30T02:20:32.144Z,17.33
2022-10-30T02:22:59.997Z,17.17
2022-10-30T02:25:33.225Z,17.10
2022-10-30T02:28:00.588Z,17.05
2022-10-30T02:30:30.723Z,17.12
2022-10-30T02:32:58.402Z,17.08
2022-10-30T02:35:26.103Z,17.05
2022-10-30T02:37:55.250Z,17.17
2022-10-30T02:40:22.886Z,17.24
2022-10-30T02:42:52.960Z,17.03
2022-10-30T02:45:20.573Z,16.96
2022-10-30T02:47:48.656Z,17.06
2022-10-30T02:50:16.206Z,17.14
2022-10-30T02:52:43.763Z,17.04
2022-10-30T02:55:12.595Z,17.17
2022-10-30T02:57:41.323Z,17.19
2022-10-30T03:00:09.528Z,17.05
2022-10-30T03:02:37.313Z,16.95
2022-10-30T03:05:05.458Z,17.21
2022-10-30T03:07:32.883Z,16.63
2022-10-30T03:10:00.304Z,16.81
2022-10-30T03:12:29.039Z,16.64
2022-10-30T03:14:56.399Z,16.61
2022-10-30T03:17:23.791Z,16.19
2022-10-30T03:19:51.695Z,16.30
2022-10-30T03:22:19.119Z,16.19
2022-10-30T03:24:46.944Z,15.85
2022-10-30T03:27:14.313Z,15.98
2022-10-30T03:29:43.134Z,15.85
2022-10-30T03:32:11.575Z,15.39
2022-10-30T03:34:48.118Z,15.32
2022-10-30T03:37:15.478Z,15.37
2022-10-30T03:39:42.933Z,15.08
2022-10-30T03:42:12.521Z,14.83
2022-10-30T03:44:39.966Z,14.94
2022-10-30T03:49:44.525Z,14.98
2022-10-30T03:52:15.035Z,15.14
2022-10-30T03:54:42.392Z,14.74
2022-10-30T03:57:11.799Z,15.03
2022-10-30T03:59:55.110Z,15.14
2022-10-30T04:02:46.084Z,15.11
2022-10-30T04:05:14.548Z,15.16
2022-10-30T04:07:41.995Z,15.39
2022-10-30T04:10:10.371Z,15.53
2022-10-30T04:12:37.826Z,15.68
2022-10-30T04:15:06.691Z,15.76
2022-10-30T04:17:36.858Z,16.10
2022-10-30T04:20:08.680Z,15.84
2022-10-30T04:22:36.112Z,15.93
2022-10-30T04:25:03.660Z,16.25
2022-10-30T04:27:32.215Z,16.10
2022-10-30T04:29:59.670Z,16.25
2022-10-30T04:32:27.033Z,16.03
2022-10-30T04:34:55.468Z,16.03
2022-10-30T04:37:24.299Z,16.12
2022-10-30T04:39:51.768Z,16.26
2022-10-30T04:42:24.428Z,16.18
2022-10-30T04:44:51.832Z,16.37
2022-10-30T04:47:19.372Z,16.38
2022-10-30T04:49:46.787Z,16.38
2022-10-30T04:52:14.212Z,16.40
2022-10-30T04:54:43.381Z,16.24
2022-10-30T04:57:10.815Z,16.22
2022-10-30T04:59:38.512Z,16.09
2022-10-30T05:02:06.029Z,16.04
2022-10-30T05:04:33.673Z,15.81
2022-10-30T05:07:03.618Z,15.81
2022-10-30T05:09:31.162Z,15.93
2022-10-30T05:12:00.208Z,15.89
2022-10-30T05:14:30.908Z,15.76
2022-10-30T05:16:58.567Z,15.98
2022-10-30T05:19:26.443Z,15.77
2022-10-30T05:21:56.268Z,15.62
2022-10-30T05:24:24.068Z,15.68
2022-10-30T05:26:51.484Z,15.60
2022-10-30T05:29:20.283Z,15.53
2022-10-30T05:31:47.659Z,15.54
2022-10-30T05:34:17.765Z,15.50
2022-10-30T05:36:47.823Z,15.56
2022-10-30T05:39:15.973Z,15.51
2022-10-30T05:41:46.772Z,15.19
2022-10-30T05:44:15.990Z,15.23
2022-10-30T05:46:50.073Z,15.06
2022-10-30T05:49:30.348Z,15.08
2022-10-30T05:51:58.838Z,15.10
2022-10-30T05:54:26.316Z,15.12
2022-10-30T05:57:13.976Z,15.17
2022-10-30T05:59:41.870Z,15.03
2022-10-30T06:02:10.741Z,14.99
2022-10-30T06:04:38.245Z,14.90
2022-10-30T06:07:11.243Z,15.09
2022-10-30T06:09:38.664Z,14.77
2022-10-30T06:12:21.569Z,14.82
2022-10-30T06:15:05.325Z,14.94
2022-10-30T06:17:36.471Z,14.81
2022-10-30T06:20:15.099Z,15.09
2022-10-30T06:23:03.696Z,15.10
2022-10-30T06:26:03.491Z,15.13
2022-10-30T06:28:35.048Z,15.13
2022-10-30T06:31:02.621Z,15.20
2022-10-30T06:33:32.800Z,15.29
2022-10-30T06:36:00.993Z,15.36
2022-10-30T06:38:29.064Z,15.34
2022-10-30T06:40:56.672Z,15.65
2022-10-30T06:43:43.936Z,15.58
2022-10-30T06:46:17.713Z,15.85
2022-10-30T06:48:46.999Z,16.05
2022-10-30T06:51:15.603Z,16.21
2022-10-30T06:53:44.037Z,16.37
2022-10-30T06:56:37.095Z,16.61
2022-10-30T06:59:13.681Z,16.86
2022-10-30T07:01:55.817Z,16.94
2022-10-30T07:04:28.552Z,17.02
2022-10-30T07:06:59.287Z,17.15
2022-10-30T07:09:26.740Z,17.14
2022-10-30T07:11:56.632Z,17.23
2022-10-30T07:14:27.062Z,17.29
2022-10-30T07:17:11.414Z,17.40
2022-10-30T07:19:41.287Z,17.25
2022-10-30T07:22:08.854Z,17.57
2022-10-30T07:24:38.943Z,17.71
2022-10-30T07:27:26.578Z,17.91
2022-10-30T07:30:03.904Z,18.11
2022-10-30T07:32:42.207Z,18.03
2022-10-30T07:35:33.780Z,17.81
2022-10-30T07:38:15.040Z,17.86
2022-10-30T07:40:53.224Z,17.76
2022-10-30T07:43:42.088Z,17.76
2022-10-30T07:46:35.577Z,17.96
2022-10-30T07:49:22.339Z,17.86
2022-10-30T07:51:54.694Z,17.79
2022-10-30T07:54:22.153Z,17.99
2022-10-30T07:56:49.645Z,18.07
2022-10-30T07:59:35.792Z,18.17
2022-10-30T08:02:19.479Z,18.29
2022-10-30T08:05:06.625Z,18.27
2022-10-30T08:07:53.011Z,18.47
2022-10-30T08:10:20.636Z,18.56
2022-10-30T08:12:48.167Z,18.74
2022-10-30T08:15:15.620Z,18.75
2022-10-30T08:17:44.418Z,18.97
2022-10-30T08:20:13.299Z,18.98
2022-10-30T08:22:46.368Z,19.33
2022-10-30T08:25:15.780Z,19.37
2022-10-30T08:27:51.300Z,19.69
2022-10-30T08:30:19.236Z,19.48
2022-10-30T08:32:47.048Z,19.75
2022-10-30T08:35:37.382Z,20.11
2022-10-30T08:38:04.794Z,20.07
2022-10-30T08:40:34.350Z,20.15
2022-10-30T08:43:07.156Z,20.37
2022-10-30T08:45:35.258Z,20.53
2022-10-30T08:48:11.797Z,20.20
2022-10-30T08:50:41.956Z,20.45
2022-10-30T08:53:14.443Z,20.65
2022-10-30T08:55:43.438Z,20.23
2022-10-30T08:58:19.344Z,20.35
2022-10-30T09:00:48.868Z,20.29
2022-10-30T09:03:16.222Z,20.29
2022-10-30T09:06:02.073Z,20.47
2022-10-30T09:08:49.429Z,20.54
2022-10-30T09:11:35.746Z,20.60
2022-10-30T09:14:04.488Z,20.50
2022-10-30T09:16:31.943Z,20.74
2022-10-30T09:18:59.328Z,21.16
2022-10-30T09:21:27.144Z,21.18
2022-10-30T09:23:57.663Z,21.30
2022-10-30T09:26:38.212Z,21.52
2022-10-30T09:29:23.259Z,21.71
2022-10-30T09:32:16.732Z,21.91
2022-10-30T09:34:55.804Z,21.88
2022-10-30T09:37:28.175Z,22.20
2022-10-30T09:40:00.071Z,22.33
2022-10-30T09:42:42.123Z,22.27
2022-10-30T09:45:45.303Z,22.24
2022-10-30T09:48:26.446Z,22.07
2022-10-30T09:51:25.959Z,21.95
2022-10-30T09:54:03.382Z,22.05
2022-10-30T09:56:41.186Z,22.19
2022-10-30T09:59:19.939Z,22.41
2022-10-30T10:01:51.232Z,22.45
2022-10-30T10:04:26.717Z,22.45
2022-10-30T10:07:18.158Z,22.44
2022-10-30T10:09:55.135Z,22.56
2022-10-30T10:12:36.748Z,22.64
2022-10-30T10:15:11.445Z,22.57
2022-10-30T10:17:51.207Z,22.72
2022-10-30T10:21:34.201Z,22.71
2022-10-30T10:24:03.506Z,22.97
2022-10-30T10:26:34.315Z,23.06
2022-10-30T10:29:14.169Z,23.21
2022-10-30T10:31:44.685Z,23.27
2022-10-30T10:34:32.558Z,23.04
2022-10-30T10:37:07.864Z,23.30
2022-10-30T10:39:45.931Z,23.35
2022-10-30T10:42:28.138Z,23.53
2022-10-30T10:45:13.906Z,23.43
2022-10-30T10:48:04.787Z,23.23
2022-10-30T10:50:34.957Z,23.27
2022-10-30T10:53:06.928Z,23.31
2022-10-30T10:55:38.480Z,23.75
2022-10-30T10:58:11.297Z,23.75
2022-10-30T11:00:42.191Z,23.74
2022-10-30T11:03:13.027Z,23.76
2022-10-30T11:05:42.973Z,24.04
2022-10-30T11:08:16.485Z,24.06
2022-10-30T11:10:47.572Z,24.17
2022-10-30T11:13:15.108Z,24.27
2022-10-30T11:15:50.939Z,24.15
2022-10-30T11:18:18.406Z,24.46
2022-10-30T11:20:53.136Z,24.35
2022-10-30T11:23:41.869Z,24.18
2022-10-30T11:26:30.702Z,23.83
2022-10-30T11:29:00.850Z,23.78
2022-10-30T11:31:34.622Z,23.85
2022-10-30T11:34:29.136Z,24.07
2022-10-30T11:36:59.570Z,24.25
2022-10-30T11:39:32.761Z,24.49
2022-10-30T11:42:05.879Z,24.26
2022-10-30T11:44:37.034Z,24.37
2022-10-30T11:47:05.432Z,24.47
2022-10-30T11:49:44.717Z,24.53
2022-10-30T11:52:14.368Z,24.63
2022-10-30T11:54:46.209Z,24.37
2022-10-30T11:57:20.915Z,24.43
2022-10-30T11:59:48.730Z,24.52
2022-10-30T12:02:30.712Z,24.38
2022-10-30T12:05:02.346Z,24.51
2022-10-30T12:07:31.936Z,24.45
2022-10-30T12:10:02.142Z,24.31
2022-10-30T12:12:34.107Z,24.36
2022-10-30T12:15:11.150Z,24.39
2022-10-30T12:17:39.357Z,24.05
2022-10-30T12:20:08.180Z,24.05
2022-10-30T12:22:36.006Z,23.88
2022-10-30T12:25:08.077Z,23.94
2022-10-30T12:27:38.007Z,23.69
2022-10-30T12:30:10.307Z,23.44
2022-10-30T12:32:46.553Z,23.45
2022-10-30T12:35:23.720Z,23.20
2022-10-30T12:37:54.207Z,23.51
2022-10-30T12:40:25.874Z,23.40
2022-10-30T12:43:03.069Z,23.19
2022-10-30T12:45:33.619Z,23.32
2022-10-30T12:48:04.417Z,23.17
2022-10-30T12:50:36.405Z,23.36
2022-10-30T12:53:08.580Z,23.22
2022-10-30T12:55:41.129Z,23.20
2022-10-30T12:58:19.645Z,22.99
2022-10-30T13:00:53.365Z,23.16
2022-10-30T13:03:29.003Z,23.14
2022-10-30T13:05:58.485Z,23.16
2022-10-30T13:08:29.820Z,23.00
2022-10-30T13:11:04.037Z,22.83
2022-10-30T13:13:36.343Z,22.63
2022-10-30T13:16:07.585Z,22.82
2022-10-30T13:18:35.961Z,22.63
2022-10-30T13:21:12.621Z,22.59
2022-10-30T13:23:44.381Z,22.62
2022-10-30T13:26:20.899Z,22.43
2022-10-30T13:28:54.416Z,22.40
2022-10-30T13:31:29.560Z,22.33
2022-10-30T13:34:02.325Z,22.30
2022-10-30T13:36:35.608Z,22.28
2022-10-30T13:39:13.345Z,22.12
2022-10-30T13:41:53.985Z,21.82
2022-10-30T13:44:27.254Z,21.84
2022-10-30T13:47:03.107Z,21.85
2022-10-30T13:49:42.529Z,21.81
2022-10-30T13:52:13.853Z,21.90
2022-10-30T13:54:44.462Z,21.72
2022-10-30T13:57:18.847Z,21.89
2022-10-30T13:59:55.677Z,22.20
2022-10-30T14:02:37.759Z,22.35
2022-10-30T14:05:15.527Z,22.42
2022-10-30T14:07:47.614Z,22.48
2022-10-30T14:10:20.003Z,22.53
2022-10-30T14:12:52.309Z,22.47
2022-10-30T14:15:27.219Z,22.56
2022-10-30T14:18:27.220Z,22.59
2022-10-30T14:20:55.443Z,22.54
2022-10-30T14:23:24.290Z,22.50
2022-10-30T14:26:14.164Z,22.39
2022-10-30T14:28:44.556Z,22.33
2022-10-30T14:31:13.826Z,22.20
2022-10-30T14:33:45.665Z,22.16
2022-10-30T14:36:14.458Z,22.08
2022-10-30T14:38:41.874Z,21.96
2022-10-30T14:41:23.880Z,21.70
2022-10-30T14:44:01.030Z,21.37
2022-10-30T14:46:33.397Z,21.27
2022-10-30T14:49:05.243Z,21.17
2022-10-30T14:51:38.930Z,21.05
2022-10-30T14:54:17.156Z,21.01
2022-10-30T14:56:47.437Z,20.93
2022-10-30T14:59:24.704Z,20.93
2022-10-30T15:02:10.972Z,20.92
2022-10-30T15:04:46.648Z,20.75
2022-10-30T15:07:20.996Z,20.68
2022-10-30T15:10:01.205Z,20.69
2022-10-30T15:12:37.531Z,20.58
2022-10-30T15:15:07.927Z,20.44
2022-10-30T15:17:38.334Z,20.23
2022-10-30T15:20:08.796Z,19.79
2022-10-30T15:22:36.321Z,19.84
2022-10-30T15:25:04.254Z,19.72
2022-10-30T15:27:33.091Z,19.16
2022-10-30T15:30:02.607Z,18.87
2022-10-30T15:32:31.445Z,19.16
2022-10-30T15:35:00.899Z,19.11
2022-10-30T15:37:28.790Z,18.59
2022-10-30T15:40:17.669Z,18.83
2022-10-30T15:42:45.704Z,18.75
2022-10-30T15:45:17.852Z,18.41
2022-10-30T15:47:49.279Z,18.14
2022-10-30T15:50:19.917Z,17.93
2022-10-30T15:52:47.355Z,17.97
2022-10-30T15:55:17.155Z,18.00
2022-10-30T15:58:02.858Z,17.98
2022-10-30T16:00:32.602Z,17.98
2022-10-30T16:03:06.028Z,17.88
2022-10-30T16:05:34.078Z,17.73
2022-10-30T16:08:02.849Z,17.48
2022-10-30T16:10:34.192Z,17.47
2022-10-30T16:13:03.062Z,17.23
2022-10-30T16:15:32.710Z,17.12
2022-10-30T16:18:13.616Z,17.08
2022-10-30T16:20:43.071Z,17.07
2022-10-30T16:23:10.739Z,16.89
2022-10-30T16:25:46.822Z,16.76
2022-10-30T16:28:37.531Z,15.98
2022-10-30T16:31:07.591Z,15.96
2022-10-30T16:33:37.371Z,16.19
2022-10-30T16:36:06.010Z,16.17
2022-10-30T16:38:36.641Z,16.25
2022-10-30T16:41:06.371Z,16.28
2022-10-30T16:43:35.313Z,16.13
2022-10-30T16:46:36.608Z,16.09
2022-10-30T16:49:08.640Z,16.13
2022-10-30T16:51:38.860Z,16.07
2022-10-30T16:54:07.972Z,15.82
2022-10-30T16:56:35.359Z,15.52
2022-10-30T16:59:07.924Z,15.59
2022-10-30T17:01:36.135Z,15.77
2022-10-30T17:04:03.646Z,15.55
2022-10-30T17:06:40.754Z,15.55
2022-10-30T17:09:10.283Z,15.57
2022-10-30T17:11:39.849Z,15.53
2022-10-30T17:14:18.726Z,15.61
2022-10-30T17:16:53.852Z,15.12
2022-10-30T17:19:47.235Z,15.16
2022-10-30T17:22:18.582Z,15.24
2022-10-30T17:24:47.488Z,15.02
2022-10-30T17:27:43.589Z,15.08
2022-10-30T17:30:36.248Z,14.86
2022-10-30T17:33:04.868Z,14.81
2022-10-30T17:35:32.232Z,14.99
2022-10-30T17:38:03.034Z,15.17
2022-10-30T17:40:30.724Z,15.12
2022-10-30T17:42:58.103Z,14.98
2022-10-30T17:45:25.416Z,15.01
2022-10-30T17:47:52.808Z,15.10
2022-10-30T17:50:20.166Z,15.02
2022-10-30T17:52:47.537Z,15.14
2022-10-30T17:55:29.498Z,15.10
2022-10-30T17:57:56.858Z,14.87
2022-10-30T18:00:24.274Z,14.61
2022-10-30T18:02:51.821Z,14.72
2022-10-30T18:05:22.390Z,14.80
2022-10-30T18:10:22.084Z,14.91
2022-10-30T18:12:56.805Z,14.67
2022-10-30T18:15:29.723Z,14.44
2022-10-30T18:17:57.230Z,14.49
2022-10-30T18:20:24.695Z,14.56
2022-10-30T18:22:52.138Z,14.46
2022-10-30T18:25:22.752Z,14.67
2022-10-30T18:27:50.255Z,14.48
2022-10-30T18:30:19.303Z,14.53
2022-10-30T18:32:47.073Z,14.37
2022-10-30T18:35:17.180Z,14.51
2022-10-30T18:37:44.545Z,14.52
2022-10-30T18:40:12.536Z,14.41
2022-10-30T18:42:39.910Z,14.62
2022-10-30T18:45:19.476Z,14.43
2022-10-30T18:47:47.265Z,14.56
2022-10-30T18:50:14.656Z,14.49
2022-10-30T18:52:42.384Z,14.39
2022-10-30T18:55:18.853Z,14.56
2022-10-30T18:57:46.921Z,14.55
2022-10-30T19:00:15.741Z,14.45
2022-10-30T19:02:44.577Z,14.51
2022-10-30T19:05:27.171Z,14.55
2022-10-30T19:07:54.679Z,14.50
2022-10-30T19:10:22.617Z,14.54
2022-10-30T19:13:10.936Z,14.43
2022-10-30T19:15:40.539Z,14.41
2022-10-30T19:18:09.555Z,14.42
2022-10-30T19:21:02.726Z,14.54
2022-10-30T19:23:26.364Z,14.51
2022-10-30T19:25:53.888Z,14.50
2022-10-30T19:28:22.267Z,14.56
2022-10-30T19:30:51.102Z,14.50
2022-10-30T19:33:21.254Z,14.69
2022-10-30T19:35:53.936Z,14.75
2022-10-30T19:38:21.459Z,14.66
2022-10-30T19:40:48.853Z,14.78
2022-10-30T19:43:16.437Z,14.94
2022-10-30T19:45:43.934Z,15.18
2022-10-30T19:48:20.650Z,15.10
2022-10-30T19:50:53.494Z,15.18
2022-10-30T19:53:21.043Z,15.28
2022-10-30T19:55:51.318Z,15.22
2022-10-30T19:58:22.199Z,15.29
2022-10-30T20:00:54.273Z,15.08
2022-10-30T20:03:21.977Z,15.17
2022-10-30T20:05:51.122Z,15.27
2022-10-30T20:08:21.125Z,15.30
2022-10-30T20:10:50.982Z,15.23
2022-10-30T20:13:18.745Z,15.07
2022-10-30T20:15:46.267Z,15.12
2022-10-30T20:18:16.412Z,15.23
2022-10-30T20:20:47.875Z,15.41
2022-10-30T20:23:15.449Z,15.49
2022-10-30T20:25:45.950Z,15.61
2022-10-30T20:28:23.262Z,15.46
2022-10-30T20:30:50.874Z,15.45
2022-10-30T20:33:19.417Z,15.62
2022-10-30T20:35:47.289Z,15.69
2022-10-30T20:38:18.285Z,15.58
2022-10-30T20:40:48.353Z,15.65
2022-10-30T20:43:18.371Z,15.41
2022-10-30T20:45:45.877Z,15.39
2022-10-30T20:48:13.745Z,15.37
2022-10-30T20:50:41.743Z,15.14
2022-10-30T20:53:12.177Z,14.87
2022-10-30T20:55:39.737Z,14.55
2022-10-30T20:58:08.471Z,14.69
2022-10-30T21:00:35.867Z,14.62
2022-10-30T21:03:03.633Z,14.68
2022-10-30T21:05:48.818Z,14.60
2022-10-30T21:08:16.508Z,14.84
2022-10-30T21:10:43.883Z,14.94
2022-10-30T21:13:12.545Z,14.90
2022-10-30T21:15:40.541Z,14.87
2022-10-30T21:18:07.952Z,14.96
2022-10-30T21:20:36.586Z,14.92
2022-10-30T21:23:04.312Z,14.94
2022-10-30T21:25:32.784Z,14.62
2022-10-30T21:28:00.864Z,14.71
2022-10-30T21:30:30.101Z,14.62
2022-10-30T21:32:57.744Z,14.64
2022-10-30T21:35:25.396Z,14.56
2022-10-30T21:37:52.756Z,14.34
2022-10-30T21:40:20.121Z,14.45
2022-10-30T21:42:48.441Z,14.42
2022-10-30T21:45:15.783Z,14.55
2022-10-30T21:47:44.420Z,14.42
2022-10-30T21:50:12.881Z,14.49
2022-10-30T21:52:40.612Z,14.63
2022-10-30T21:55:08.590Z,14.65
2022-10-30T21:57:36.255Z,14.70
2022-10-30T22:00:06.371Z,14.72
2022-10-30T22:02:35.766Z,14.72
2022-10-30T22:05:04.813Z,14.86
2022-10-30T22:07:32.167Z,14.81
2022-10-30T22:09:59.490Z,14.85
2022-10-30T22:12:26.844Z,14.94
2022-10-30T22:14:54.147Z,14.95
2022-10-30T22:17:21.641Z,14.89
2022-10-30T22:19:49.011Z,14.84
2022-10-30T22:22:17.684Z,14.86
2022-10-30T22:24:45.213Z,14.82
2022-10-30T22:27:12.567Z,14.89
2022-10-30T22:29:39.904Z,14.92
2022-10-30T22:32:07.244Z,14.98
2022-10-30T22:34:34.607Z,14.88
2022-10-30T22:37:01.923Z,14.78
2022-10-30T22:39:30.568Z,14.76
2022-10-30T22:41:57.927Z,14.70
2022-10-30T22:44:25.231Z,14.49
2022-10-30T22:46:53.610Z,14.52
2022-10-30T22:49:21.058Z,14.39
2022-10-30T22:51:48.452Z,14.36
2022-10-30T22:54:15.807Z,14.41
2022-10-30T22:56:44.514Z,14.32
2022-10-30T22:59:13.266Z,14.21
2022-10-30T23:01:41.980Z,14.32
2022-10-30T23:04:11.556Z,14.27
2022-10-30T23:06:39.028Z,14.19
2022-10-30T23:09:08.189Z,14.20
2022-10-30T23:11:35.621Z,13.97
2022-10-30T23:14:04.438Z,14.18
2022-10-30T23:16:31.979Z,14.12
2022-10-30T23:19:00.715Z,14.04
2022-10-30T23:21:30.768Z,13.82
2022-10-30T23:23:58.462Z,13.82
2022-10-30T23:26:28.602Z,13.84
2022-10-30T23:28:57.011Z,13.82
2022-10-30T23:31:27.895Z,13.75
2022-10-30T23:34:00.029Z,13.58
2022-10-30T23:36:28.034Z,13.59
2022-10-30T23:38:56.641Z,13.38
2022-10-30T23:41:25.783Z,13.44
2022-10-30T23:43:54.131Z,13.34
2022-10-30T23:46:21.512Z,13.45
2022-10-30T23:48:50.249Z,13.43
2022-10-30T23:51:17.763Z,13.49
2022-10-30T23:53:45.167Z,13.53
2022-10-30T23:56:12.707Z,13.51
2022-10-30T23:58:40.363Z,13.66
